Jacksonville Naval Air Station Jacksonville US
ICAO: KNIP
IATA: NIP
Category: Medium
Scheduled Services: No

Elevation: 21 ft
TransAlt. 18000 ft.

Airport Communications:
APP/DEP:123.8
ATIS:28.1
CLNC DEL:134.775
GND:128.6
ATCOM:672.3
NAVY JAX OPS:31.02
PMSV METRO:34.35
TWR:120

KNIP Zoom In..

Runways:

(A) RW 10 length 8002 ft width 200 ft
---- / hdg 95

(B) RW 14 length 5980 ft width 200 ft
---- / hdg 141

(C) RW 28 length 8002 ft width 200 ft
---- / hdg 275

(D) RW 32 length 5980 ft width 200 ft
---- / hdg 321

Location; KNIP
Day. 22 / Time. 23.53 Zulu
* Altimeter: 30.04
* Temperature: 21° c. 69.8°f.
* Wind from: 140° Speed 09 kn.
Dewpoint: 17° c.
Visibility: 10 Statute Miles.
Clouds: Few 4000 ft.
Clouds: Broken 15000 ft.
Clouds: Broken 25000 ft.

KNIP 222353Z 14009KT 10SM FEW040 BKN150 BKN250 21/17 A3004 RMK AO2 SLP168 T02060167 10261 20206 58001 $


Wind From 140°
Speed 09 kn.

YouTube Music Video
 
jpsmedia.com for Web Design  worldairports.se 2018   terms of use